sensor_id;sensor_type;location;lat;lon;timestamp;P1;durP1;ratioP1;P2;durP2;ratioP2
80936;SDS011;70395;51.382;7.074;2023-07-24T00:00:16;4.20;;;3.50;;
80936;SDS011;70395;51.382;7.074;2023-07-24T00:02:42;7.23;;;3.40;;
80936;SDS011;70395;51.382;7.074;2023-07-24T00:05:08;4.73;;;2.80;;
80936;SDS011;70395;51.382;7.074;2023-07-24T00:07:35;4.80;;;3.47;;
80936;SDS011;70395;51.382;7.074;2023-07-24T00:10:01;4.97;;;3.60;;
80936;SDS011;70395;51.382;7.074;2023-07-24T00:12:28;4.47;;;3.43;;
80936;SDS011;70395;51.382;7.074;2023-07-24T00:14:54;4.13;;;3.17;;
80936;SDS011;70395;51.382;7.074;2023-07-24T00:17:19;6.00;;;3.90;;
80936;SDS011;70395;51.382;7.074;2023-07-24T00:19:45;4.47;;;4.07;;
80936;SDS011;70395;51.382;7.074;2023-07-24T00:22:11;5.90;;;3.73;;
80936;SDS011;70395;51.382;7.074;2023-07-24T00:24:37;5.50;;;3.37;;
80936;SDS011;70395;51.382;7.074;2023-07-24T00:27:03;5.17;;;3.13;;
80936;SDS011;70395;51.382;7.074;2023-07-24T00:29:29;4.20;;;3.33;;
80936;SDS011;70395;51.382;7.074;2023-07-24T00:31:54;4.77;;;3.40;;
80936;SDS011;70395;51.382;7.074;2023-07-24T00:34:20;4.13;;;3.00;;
80936;SDS011;70395;51.382;7.074;2023-07-24T00:36:46;5.00;;;3.50;;
80936;SDS011;70395;51.382;7.074;2023-07-24T00:39:13;4.67;;;3.30;;
80936;SDS011;70395;51.382;7.074;2023-07-24T00:41:40;4.20;;;3.63;;
80936;SDS011;70395;51.382;7.074;2023-07-24T00:44:07;5.10;;;3.70;;
80936;SDS011;70395;51.382;7.074;2023-07-24T00:46:33;5.20;;;3.33;;
80936;SDS011;70395;51.382;7.074;2023-07-24T00:49:01;5.20;;;3.60;;
80936;SDS011;70395;51.382;7.074;2023-07-24T00:51:29;8.50;;;3.90;;
80936;SDS011;70395;51.382;7.074;2023-07-24T00:53:56;8.23;;;4.00;;
80936;SDS011;70395;51.382;7.074;2023-07-24T00:56:26;5.60;;;3.37;;
80936;SDS011;70395;51.382;7.074;2023-07-24T00:58:54;4.23;;;3.20;;
80936;SDS011;70395;51.382;7.074;2023-07-24T01:01:21;5.13;;;3.73;;
80936;SDS011;70395;51.382;7.074;2023-07-24T01:03:48;6.27;;;4.47;;
80936;SDS011;70395;51.382;7.074;2023-07-24T01:06:14;6.20;;;3.80;;
80936;SDS011;70395;51.382;7.074;2023-07-24T01:08:40;6.53;;;4.30;;
80936;SDS011;70395;51.382;7.074;2023-07-24T01:11:15;5.40;;;3.50;;
80936;SDS011;70395;51.382;7.074;2023-07-24T01:16:38;4.33;;;3.77;;
80936;SDS011;70395;51.382;7.074;2023-07-24T01:25:00;3.60;;;3.17;;
80936;SDS011;70395;51.382;7.074;2023-07-24T01:27:31;3.90;;;2.90;;
80936;SDS011;70395;51.382;7.074;2023-07-24T01:29:57;4.20;;;3.37;;
80936;SDS011;70395;51.382;7.074;2023-07-24T01:32:23;5.47;;;3.40;;
80936;SDS011;70395;51.382;7.074;2023-07-24T01:34:50;8.60;;;3.77;;
80936;SDS011;70395;51.382;7.074;2023-07-24T01:37:17;4.93;;;3.57;;
80936;SDS011;70395;51.382;7.074;2023-07-24T01:39:45;4.83;;;3.00;;
80936;SDS011;70395;51.382;7.074;2023-07-24T01:42:13;4.27;;;3.20;;
80936;SDS011;70395;51.382;7.074;2023-07-24T01:44:40;5.43;;;3.53;;
80936;SDS011;70395;51.382;7.074;2023-07-24T01:47:05;4.30;;;3.60;;
80936;SDS011;70395;51.382;7.074;2023-07-24T01:49:31;4.40;;;3.37;;
80936;SDS011;70395;51.382;7.074;2023-07-24T01:51:57;4.40;;;3.10;;
80936;SDS011;70395;51.382;7.074;2023-07-24T01:54:23;6.20;;;3.27;;
80936;SDS011;70395;51.382;7.074;2023-07-24T01:56:49;5.83;;;4.33;;
80936;SDS011;70395;51.382;7.074;2023-07-24T01:59:14;3.73;;;3.10;;
80936;SDS011;70395;51.382;7.074;2023-07-24T02:01:40;4.47;;;3.63;;
80936;SDS011;70395;51.382;7.074;2023-07-24T02:04:06;7.70;;;3.90;;
80936;SDS011;70395;51.382;7.074;2023-07-24T02:06:32;5.53;;;4.10;;
80936;SDS011;70395;51.382;7.074;2023-07-24T02:08:58;4.47;;;3.43;;
80936;SDS011;70395;51.382;7.074;2023-07-24T02:11:24;6.80;;;5.00;;
80936;SDS011;70395;51.382;7.074;2023-07-24T02:13:50;8.90;;;4.27;;
80936;SDS011;70395;51.382;7.074;2023-07-24T02:16:15;4.70;;;3.93;;
80936;SDS011;70395;51.382;7.074;2023-07-24T02:18:42;7.90;;;4.30;;
80936;SDS011;70395;51.382;7.074;2023-07-24T02:21:08;8.80;;;4.27;;
80936;SDS011;70395;51.382;7.074;2023-07-24T02:23:35;6.63;;;4.50;;
80936;SDS011;70395;51.382;7.074;2023-07-24T02:26:01;5.90;;;4.47;;
80936;SDS011;70395;51.382;7.074;2023-07-24T02:28:27;5.87;;;4.33;;
80936;SDS011;70395;51.382;7.074;2023-07-24T02:30:52;5.20;;;4.13;;
80936;SDS011;70395;51.382;7.074;2023-07-24T02:33:22;9.10;;;4.67;;
80936;SDS011;70395;51.382;7.074;2023-07-24T02:35:48;5.10;;;4.70;;
80936;SDS011;70395;51.382;7.074;2023-07-24T02:38:17;5.20;;;3.73;;
80936;SDS011;70395;51.382;7.074;2023-07-24T02:40:43;5.27;;;4.10;;
80936;SDS011;70395;51.382;7.074;2023-07-24T02:43:10;6.27;;;4.10;;
80936;SDS011;70395;51.382;7.074;2023-07-24T02:45:36;4.83;;;3.60;;
80936;SDS011;70395;51.382;7.074;2023-07-24T02:48:03;6.57;;;4.43;;
80936;SDS011;70395;51.382;7.074;2023-07-24T02:50:30;5.63;;;4.40;;
80936;SDS011;70395;51.382;7.074;2023-07-24T02:52:57;5.50;;;3.63;;
80936;SDS011;70395;51.382;7.074;2023-07-24T02:55:23;7.43;;;4.40;;
80936;SDS011;70395;51.382;7.074;2023-07-24T02:57:48;8.77;;;3.87;;
80936;SDS011;70395;51.382;7.074;2023-07-24T03:00:15;7.70;;;4.93;;
80936;SDS011;70395;51.382;7.074;2023-07-24T03:02:40;9.50;;;4.93;;
80936;SDS011;70395;51.382;7.074;2023-07-24T03:05:06;6.93;;;4.20;;
80936;SDS011;70395;51.382;7.074;2023-07-24T03:07:33;9.67;;;4.67;;
80936;SDS011;70395;51.382;7.074;2023-07-24T03:09:58;7.10;;;4.73;;
80936;SDS011;70395;51.382;7.074;2023-07-24T03:12:24;5.80;;;4.40;;
80936;SDS011;70395;51.382;7.074;2023-07-24T03:14:50;5.43;;;4.93;;
80936;SDS011;70395;51.382;7.074;2023-07-24T03:17:16;5.97;;;5.20;;
80936;SDS011;70395;51.382;7.074;2023-07-24T03:19:42;5.47;;;4.43;;
80936;SDS011;70395;51.382;7.074;2023-07-24T03:22:07;6.83;;;4.70;;
80936;SDS011;70395;51.382;7.074;2023-07-24T03:24:34;5.07;;;4.53;;
80936;SDS011;70395;51.382;7.074;2023-07-24T03:27:00;9.00;;;4.53;;
80936;SDS011;70395;51.382;7.074;2023-07-24T03:29:26;5.30;;;4.80;;
80936;SDS011;70395;51.382;7.074;2023-07-24T03:31:52;8.40;;;4.57;;
80936;SDS011;70395;51.382;7.074;2023-07-24T03:34:19;6.00;;;4.87;;
80936;SDS011;70395;51.382;7.074;2023-07-24T03:36:44;5.87;;;4.87;;
80936;SDS011;70395;51.382;7.074;2023-07-24T03:39:10;4.87;;;4.00;;
80936;SDS011;70395;51.382;7.074;2023-07-24T03:41:36;5.00;;;4.47;;
80936;SDS011;70395;51.382;7.074;2023-07-24T03:44:03;8.80;;;4.93;;
80936;SDS011;70395;51.382;7.074;2023-07-24T03:46:31;5.23;;;4.10;;
80936;SDS011;70395;51.382;7.074;2023-07-24T03:48:57;6.40;;;5.00;;
80936;SDS011;70395;51.382;7.074;2023-07-24T03:51:23;5.27;;;4.77;;
80936;SDS011;70395;51.382;7.074;2023-07-24T03:53:49;8.97;;;4.90;;
80936;SDS011;70395;51.382;7.074;2023-07-24T03:56:15;8.87;;;4.83;;
80936;SDS011;70395;51.382;7.074;2023-07-24T03:58:41;7.87;;;4.60;;
80936;SDS011;70395;51.382;7.074;2023-07-24T04:01:07;8.47;;;4.93;;
80936;SDS011;70395;51.382;7.074;2023-07-24T04:03:34;5.20;;;4.37;;
80936;SDS011;70395;51.382;7.074;2023-07-24T04:06:01;4.87;;;4.37;;
80936;SDS011;70395;51.382;7.074;2023-07-24T04:08:27;8.70;;;5.43;;
80936;SDS011;70395;51.382;7.074;2023-07-24T04:10:53;8.27;;;4.90;;
80936;SDS011;70395;51.382;7.074;2023-07-24T04:13:21;6.77;;;5.63;;
80936;SDS011;70395;51.382;7.074;2023-07-24T04:15:47;6.30;;;4.50;;
80936;SDS011;70395;51.382;7.074;2023-07-24T04:18:13;6.67;;;5.00;;
80936;SDS011;70395;51.382;7.074;2023-07-24T04:20:39;5.50;;;4.40;;
80936;SDS011;70395;51.382;7.074;2023-07-24T04:23:05;7.60;;;5.50;;
80936;SDS011;70395;51.382;7.074;2023-07-24T04:25:30;5.13;;;4.63;;
80936;SDS011;70395;51.382;7.074;2023-07-24T04:27:56;6.70;;;5.07;;
80936;SDS011;70395;51.382;7.074;2023-07-24T04:30:22;7.83;;;5.20;;
80936;SDS011;70395;51.382;7.074;2023-07-24T04:32:48;6.63;;;4.57;;
80936;SDS011;70395;51.382;7.074;2023-07-24T04:35:14;9.83;;;5.53;;
80936;SDS011;70395;51.382;7.074;2023-07-24T04:37:40;6.27;;;5.00;;
80936;SDS011;70395;51.382;7.074;2023-07-24T04:40:06;5.00;;;4.50;;
80936;SDS011;70395;51.382;7.074;2023-07-24T04:42:32;5.90;;;5.23;;
80936;SDS011;70395;51.382;7.074;2023-07-24T04:44:58;6.50;;;5.13;;
80936;SDS011;70395;51.382;7.074;2023-07-24T04:47:24;7.57;;;5.07;;
80936;SDS011;70395;51.382;7.074;2023-07-24T04:49:50;5.67;;;4.60;;
80936;SDS011;70395;51.382;7.074;2023-07-24T04:52:15;6.80;;;5.53;;
80936;SDS011;70395;51.382;7.074;2023-07-24T04:54:41;7.40;;;5.33;;
80936;SDS011;70395;51.382;7.074;2023-07-24T04:57:07;5.93;;;5.23;;
80936;SDS011;70395;51.382;7.074;2023-07-24T04:59:32;5.70;;;5.03;;
80936;SDS011;70395;51.382;7.074;2023-07-24T05:01:58;6.77;;;5.10;;
80936;SDS011;70395;51.382;7.074;2023-07-24T05:04:24;7.20;;;5.60;;
80936;SDS011;70395;51.382;7.074;2023-07-24T05:06:50;7.03;;;4.77;;
80936;SDS011;70395;51.382;7.074;2023-07-24T05:09:15;6.47;;;5.30;;
80936;SDS011;70395;51.382;7.074;2023-07-24T05:11:42;7.80;;;5.10;;
80936;SDS011;70395;51.382;7.074;2023-07-24T05:14:09;9.27;;;5.23;;
80936;SDS011;70395;51.382;7.074;2023-07-24T05:16:35;6.60;;;5.60;;
80936;SDS011;70395;51.382;7.074;2023-07-24T05:19:01;9.73;;;5.27;;
80936;SDS011;70395;51.382;7.074;2023-07-24T05:21:27;5.57;;;5.07;;
80936;SDS011;70395;51.382;7.074;2023-07-24T05:23:53;8.10;;;4.93;;
80936;SDS011;70395;51.382;7.074;2023-07-24T05:26:19;6.30;;;4.83;;
80936;SDS011;70395;51.382;7.074;2023-07-24T05:28:47;7.57;;;5.37;;
80936;SDS011;70395;51.382;7.074;2023-07-24T05:31:12;7.13;;;5.20;;
80936;SDS011;70395;51.382;7.074;2023-07-24T05:33:38;6.77;;;5.47;;
80936;SDS011;70395;51.382;7.074;2023-07-24T05:36:04;7.10;;;5.77;;
80936;SDS011;70395;51.382;7.074;2023-07-24T05:38:30;6.97;;;5.37;;
80936;SDS011;70395;51.382;7.074;2023-07-24T05:40:56;8.60;;;5.80;;
80936;SDS011;70395;51.382;7.074;2023-07-24T05:43:24;7.20;;;5.40;;
80936;SDS011;70395;51.382;7.074;2023-07-24T05:45:50;5.70;;;4.50;;
80936;SDS011;70395;51.382;7.074;2023-07-24T05:48:17;7.27;;;5.13;;
80936;SDS011;70395;51.382;7.074;2023-07-24T05:50:43;7.80;;;5.20;;
80936;SDS011;70395;51.382;7.074;2023-07-24T05:53:09;6.60;;;5.90;;
80936;SDS011;70395;51.382;7.074;2023-07-24T05:55:35;6.57;;;5.30;;
80936;SDS011;70395;51.382;7.074;2023-07-24T05:58:01;6.90;;;5.40;;
80936;SDS011;70395;51.382;7.074;2023-07-24T06:00:26;7.90;;;5.23;;
80936;SDS011;70395;51.382;7.074;2023-07-24T06:02:53;5.40;;;4.50;;
80936;SDS011;70395;51.382;7.074;2023-07-24T06:05:19;8.43;;;5.17;;
80936;SDS011;70395;51.382;7.074;2023-07-24T06:07:45;6.87;;;5.03;;
80936;SDS011;70395;51.382;7.074;2023-07-24T06:10:12;6.17;;;5.10;;
80936;SDS011;70395;51.382;7.074;2023-07-24T06:12:38;6.87;;;5.70;;
80936;SDS011;70395;51.382;7.074;2023-07-24T06:15:04;7.10;;;5.60;;
80936;SDS011;70395;51.382;7.074;2023-07-24T06:17:31;6.57;;;5.73;;
80936;SDS011;70395;51.382;7.074;2023-07-24T06:19:57;9.07;;;5.67;;
80936;SDS011;70395;51.382;7.074;2023-07-24T06:22:23;6.43;;;5.07;;
80936;SDS011;70395;51.382;7.074;2023-07-24T06:24:49;7.70;;;5.40;;
80936;SDS011;70395;51.382;7.074;2023-07-24T06:27:15;7.43;;;5.87;;
80936;SDS011;70395;51.382;7.074;2023-07-24T06:29:41;8.27;;;5.67;;
80936;SDS011;70395;51.382;7.074;2023-07-24T06:32:07;6.60;;;5.47;;
80936;SDS011;70395;51.382;7.074;2023-07-24T06:34:33;8.30;;;5.20;;
80936;SDS011;70395;51.382;7.074;2023-07-24T06:36:59;6.50;;;5.70;;
80936;SDS011;70395;51.382;7.074;2023-07-24T06:39:26;5.80;;;5.20;;
80936;SDS011;70395;51.382;7.074;2023-07-24T06:41:53;7.73;;;5.03;;
80936;SDS011;70395;51.382;7.074;2023-07-24T06:44:20;7.77;;;5.57;;
80936;SDS011;70395;51.382;7.074;2023-07-24T06:46:47;15.10;;;5.17;;
80936;SDS011;70395;51.382;7.074;2023-07-24T06:49:12;8.53;;;5.67;;
80936;SDS011;70395;51.382;7.074;2023-07-24T06:51:38;10.00;;;6.40;;
80936;SDS011;70395;51.382;7.074;2023-07-24T06:54:04;9.90;;;5.57;;
80936;SDS011;70395;51.382;7.074;2023-07-24T06:56:31;8.80;;;4.93;;
80936;SDS011;70395;51.382;7.074;2023-07-24T06:58:57;6.83;;;5.57;;
80936;SDS011;70395;51.382;7.074;2023-07-24T07:01:23;6.20;;;4.30;;
80936;SDS011;70395;51.382;7.074;2023-07-24T07:03:49;8.03;;;4.90;;
80936;SDS011;70395;51.382;7.074;2023-07-24T07:06:15;6.90;;;5.33;;
80936;SDS011;70395;51.382;7.074;2023-07-24T07:08:41;6.63;;;4.70;;
80936;SDS011;70395;51.382;7.074;2023-07-24T07:11:06;7.63;;;5.13;;
80936;SDS011;70395;51.382;7.074;2023-07-24T07:13:32;7.47;;;5.03;;
80936;SDS011;70395;51.382;7.074;2023-07-24T07:15:58;9.57;;;4.87;;
80936;SDS011;70395;51.382;7.074;2023-07-24T07:18:24;5.00;;;4.50;;
80936;SDS011;70395;51.382;7.074;2023-07-24T07:20:51;7.50;;;4.40;;
80936;SDS011;70395;51.382;7.074;2023-07-24T07:23:18;5.90;;;4.60;;
80936;SDS011;70395;51.382;7.074;2023-07-24T07:25:45;5.63;;;4.23;;
80936;SDS011;70395;51.382;7.074;2023-07-24T07:28:12;6.07;;;4.50;;
80936;SDS011;70395;51.382;7.074;2023-07-24T07:30:42;5.63;;;4.03;;
80936;SDS011;70395;51.382;7.074;2023-07-24T07:33:08;4.50;;;3.80;;
80936;SDS011;70395;51.382;7.074;2023-07-24T07:35:35;6.00;;;4.40;;
80936;SDS011;70395;51.382;7.074;2023-07-24T07:38:02;5.90;;;4.70;;
80936;SDS011;70395;51.382;7.074;2023-07-24T07:40:28;7.60;;;4.23;;
80936;SDS011;70395;51.382;7.074;2023-07-24T07:42:55;5.17;;;4.10;;
80936;SDS011;70395;51.382;7.074;2023-07-24T07:45:22;5.13;;;4.10;;
80936;SDS011;70395;51.382;7.074;2023-07-24T07:47:48;6.03;;;4.60;;
80936;SDS011;70395;51.382;7.074;2023-07-24T07:50:14;4.50;;;4.00;;
80936;SDS011;70395;51.382;7.074;2023-07-24T07:52:40;4.80;;;3.83;;
80936;SDS011;70395;51.382;7.074;2023-07-24T07:55:06;6.00;;;4.20;;
80936;SDS011;70395;51.382;7.074;2023-07-24T07:57:36;5.50;;;4.20;;
80936;SDS011;70395;51.382;7.074;2023-07-24T08:00:03;5.27;;;4.07;;
80936;SDS011;70395;51.382;7.074;2023-07-24T08:02:31;4.90;;;3.77;;
80936;SDS011;70395;51.382;7.074;2023-07-24T08:04:58;5.40;;;4.07;;
80936;SDS011;70395;51.382;7.074;2023-07-24T08:07:24;4.37;;;3.83;;
80936;SDS011;70395;51.382;7.074;2023-07-24T08:09:50;5.57;;;4.03;;
80936;SDS011;70395;51.382;7.074;2023-07-24T08:12:15;5.77;;;4.40;;
80936;SDS011;70395;51.382;7.074;2023-07-24T08:14:41;5.60;;;3.70;;
80936;SDS011;70395;51.382;7.074;2023-07-24T08:17:07;5.00;;;3.70;;
80936;SDS011;70395;51.382;7.074;2023-07-24T08:19:33;5.70;;;3.53;;
80936;SDS011;70395;51.382;7.074;2023-07-24T08:21:59;5.80;;;3.80;;
80936;SDS011;70395;51.382;7.074;2023-07-24T08:24:25;4.70;;;3.40;;
80936;SDS011;70395;51.382;7.074;2023-07-24T08:26:50;4.80;;;3.80;;
80936;SDS011;70395;51.382;7.074;2023-07-24T08:29:16;4.67;;;3.30;;
80936;SDS011;70395;51.382;7.074;2023-07-24T08:31:42;3.80;;;3.30;;
80936;SDS011;70395;51.382;7.074;2023-07-24T08:34:08;4.07;;;3.30;;
80936;SDS011;70395;51.382;7.074;2023-07-24T08:36:34;5.50;;;3.50;;
80936;SDS011;70395;51.382;7.074;2023-07-24T08:39:00;5.20;;;3.20;;
80936;SDS011;70395;51.382;7.074;2023-07-24T08:41:26;4.70;;;3.10;;
80936;SDS011;70395;51.382;7.074;2023-07-24T08:43:51;4.63;;;3.60;;
80936;SDS011;70395;51.382;7.074;2023-07-24T08:46:18;5.40;;;3.20;;
80936;SDS011;70395;51.382;7.074;2023-07-24T08:48:45;4.23;;;3.60;;
80936;SDS011;70395;51.382;7.074;2023-07-24T08:51:12;3.87;;;3.10;;
80936;SDS011;70395;51.382;7.074;2023-07-24T08:53:41;6.30;;;3.77;;
80936;SDS011;70395;51.382;7.074;2023-07-24T08:56:11;6.10;;;3.50;;
80936;SDS011;70395;51.382;7.074;2023-07-24T08:58:38;3.60;;;3.30;;
80936;SDS011;70395;51.382;7.074;2023-07-24T09:01:07;4.20;;;3.10;;
80936;SDS011;70395;51.382;7.074;2023-07-24T09:03:33;4.60;;;3.57;;
80936;SDS011;70395;51.382;7.074;2023-07-24T09:06:00;4.63;;;3.10;;
80936;SDS011;70395;51.382;7.074;2023-07-24T09:08:29;4.00;;;3.30;;
80936;SDS011;70395;51.382;7.074;2023-07-24T09:11:05;4.27;;;2.90;;
80936;SDS011;70395;51.382;7.074;2023-07-24T09:13:35;5.50;;;3.50;;
80936;SDS011;70395;51.382;7.074;2023-07-24T09:16:02;5.97;;;3.30;;
80936;SDS011;70395;51.382;7.074;2023-07-24T09:18:41;5.10;;;3.20;;
80936;SDS011;70395;51.382;7.074;2023-07-24T09:21:09;6.13;;;3.87;;
80936;SDS011;70395;51.382;7.074;2023-07-24T09:23:37;4.60;;;3.40;;
80936;SDS011;70395;51.382;7.074;2023-07-24T09:26:06;5.13;;;3.60;;
80936;SDS011;70395;51.382;7.074;2023-07-24T09:28:33;4.53;;;3.27;;
80936;SDS011;70395;51.382;7.074;2023-07-24T09:31:00;4.63;;;3.40;;
80936;SDS011;70395;51.382;7.074;2023-07-24T09:33:39;5.23;;;3.67;;
80936;SDS011;70395;51.382;7.074;2023-07-24T09:36:07;5.43;;;3.23;;
80936;SDS011;70395;51.382;7.074;2023-07-24T09:38:34;5.53;;;3.40;;
80936;SDS011;70395;51.382;7.074;2023-07-24T09:41:04;3.93;;;3.00;;
80936;SDS011;70395;51.382;7.074;2023-07-24T09:43:31;5.20;;;3.77;;
80936;SDS011;70395;51.382;7.074;2023-07-24T09:46:00;3.80;;;3.33;;
80936;SDS011;70395;51.382;7.074;2023-07-24T09:48:30;4.43;;;3.40;;
80936;SDS011;70395;51.382;7.074;2023-07-24T09:50:58;6.07;;;3.00;;
80936;SDS011;70395;51.382;7.074;2023-07-24T09:56:19;3.33;;;2.73;;
80936;SDS011;70395;51.382;7.074;2023-07-24T09:58:46;3.73;;;3.03;;
80936;SDS011;70395;51.382;7.074;2023-07-24T10:01:19;3.90;;;3.20;;
80936;SDS011;70395;51.382;7.074;2023-07-24T10:03:48;6.07;;;3.53;;
80936;SDS011;70395;51.382;7.074;2023-07-24T10:06:15;5.77;;;3.70;;
80936;SDS011;70395;51.382;7.074;2023-07-24T10:08:42;4.70;;;3.30;;
80936;SDS011;70395;51.382;7.074;2023-07-24T10:11:12;6.43;;;4.37;;
80936;SDS011;70395;51.382;7.074;2023-07-24T10:13:40;4.00;;;3.60;;
80936;SDS011;70395;51.382;7.074;2023-07-24T10:16:06;4.40;;;3.60;;
80936;SDS011;70395;51.382;7.074;2023-07-24T10:18:33;4.03;;;3.63;;
80936;SDS011;70395;51.382;7.074;2023-07-24T10:21:08;8.87;;;3.97;;
80936;SDS011;70395;51.382;7.074;2023-07-24T10:23:36;4.83;;;4.07;;
80936;SDS011;70395;51.382;7.074;2023-07-24T10:26:06;6.27;;;4.37;;
80936;SDS011;70395;51.382;7.074;2023-07-24T10:28:33;6.23;;;3.70;;
80936;SDS011;70395;51.382;7.074;2023-07-24T10:31:24;3.93;;;3.57;;
80936;SDS011;70395;51.382;7.074;2023-07-24T10:33:52;5.47;;;3.97;;
80936;SDS011;70395;51.382;7.074;2023-07-24T10:36:18;5.00;;;3.27;;
80936;SDS011;70395;51.382;7.074;2023-07-24T10:38:52;5.87;;;3.80;;
80936;SDS011;70395;51.382;7.074;2023-07-24T10:41:19;3.80;;;3.37;;
80936;SDS011;70395;51.382;7.074;2023-07-24T10:43:47;4.30;;;3.40;;
80936;SDS011;70395;51.382;7.074;2023-07-24T10:46:17;5.40;;;3.90;;
80936;SDS011;70395;51.382;7.074;2023-07-24T10:48:46;4.63;;;3.77;;
80936;SDS011;70395;51.382;7.074;2023-07-24T10:51:14;4.87;;;3.80;;
80936;SDS011;70395;51.382;7.074;2023-07-24T10:53:44;5.03;;;3.77;;
80936;SDS011;70395;51.382;7.074;2023-07-24T10:56:15;4.47;;;4.07;;
80936;SDS011;70395;51.382;7.074;2023-07-24T10:58:41;4.70;;;4.20;;
80936;SDS011;70395;51.382;7.074;2023-07-24T11:01:08;5.23;;;3.87;;
80936;SDS011;70395;51.382;7.074;2023-07-24T11:03:36;4.53;;;4.10;;
80936;SDS011;70395;51.382;7.074;2023-07-24T11:06:04;5.67;;;4.10;;
80936;SDS011;70395;51.382;7.074;2023-07-24T11:08:38;6.53;;;4.13;;
80936;SDS011;70395;51.382;7.074;2023-07-24T11:11:05;5.87;;;3.87;;
80936;SDS011;70395;51.382;7.074;2023-07-24T11:13:33;5.77;;;4.10;;
80936;SDS011;70395;51.382;7.074;2023-07-24T11:16:03;5.10;;;4.37;;
80936;SDS011;70395;51.382;7.074;2023-07-24T11:18:31;4.50;;;3.90;;
80936;SDS011;70395;51.382;7.074;2023-07-24T11:20:57;5.50;;;4.00;;
80936;SDS011;70395;51.382;7.074;2023-07-24T11:23:23;6.27;;;4.20;;
80936;SDS011;70395;51.382;7.074;2023-07-24T11:25:50;5.60;;;4.37;;
80936;SDS011;70395;51.382;7.074;2023-07-24T11:28:19;4.87;;;4.30;;
80936;SDS011;70395;51.382;7.074;2023-07-24T11:30:45;4.70;;;3.80;;
80936;SDS011;70395;51.382;7.074;2023-07-24T11:33:12;6.27;;;4.80;;
80936;SDS011;70395;51.382;7.074;2023-07-24T11:35:41;5.87;;;4.80;;
80936;SDS011;70395;51.382;7.074;2023-07-24T11:38:08;5.67;;;4.23;;
80936;SDS011;70395;51.382;7.074;2023-07-24T11:40:38;6.83;;;4.60;;
80936;SDS011;70395;51.382;7.074;2023-07-24T11:43:17;4.87;;;4.37;;
80936;SDS011;70395;51.382;7.074;2023-07-24T11:45:45;4.53;;;3.97;;
80936;SDS011;70395;51.382;7.074;2023-07-24T11:48:17;4.33;;;3.83;;
80936;SDS011;70395;51.382;7.074;2023-07-24T11:50:45;4.57;;;4.17;;
80936;SDS011;70395;51.382;7.074;2023-07-24T11:53:24;5.20;;;4.40;;
80936;SDS011;70395;51.382;7.074;2023-07-24T11:55:58;7.37;;;3.70;;
80936;SDS011;70395;51.382;7.074;2023-07-24T11:58:26;4.20;;;2.30;;
80936;SDS011;70395;51.382;7.074;2023-07-24T12:00:54;7.17;;;1.90;;
80936;SDS011;70395;51.382;7.074;2023-07-24T12:03:25;4.93;;;2.40;;
80936;SDS011;70395;51.382;7.074;2023-07-24T12:05:53;4.63;;;2.03;;
80936;SDS011;70395;51.382;7.074;2023-07-24T12:08:20;3.10;;;1.90;;
80936;SDS011;70395;51.382;7.074;2023-07-24T12:10:58;5.70;;;1.97;;
80936;SDS011;70395;51.382;7.074;2023-07-24T12:13:25;4.17;;;1.60;;
80936;SDS011;70395;51.382;7.074;2023-07-24T12:15:50;4.00;;;1.87;;
80936;SDS011;70395;51.382;7.074;2023-07-24T12:18:16;2.67;;;1.60;;
80936;SDS011;70395;51.382;7.074;2023-07-24T12:20:42;3.97;;;1.50;;
80936;SDS011;70395;51.382;7.074;2023-07-24T12:23:08;2.07;;;1.37;;
80936;SDS011;70395;51.382;7.074;2023-07-24T12:25:34;2.50;;;1.33;;
80936;SDS011;70395;51.382;7.074;2023-07-24T12:27:59;2.07;;;1.30;;
80936;SDS011;70395;51.382;7.074;2023-07-24T12:30:25;3.20;;;1.37;;
80936;SDS011;70395;51.382;7.074;2023-07-24T12:32:51;2.47;;;1.37;;
80936;SDS011;70395;51.382;7.074;2023-07-24T12:35:17;2.10;;;1.10;;
80936;SDS011;70395;51.382;7.074;2023-07-24T12:37:43;1.97;;;1.37;;
80936;SDS011;70395;51.382;7.074;2023-07-24T12:40:10;3.33;;;1.77;;
80936;SDS011;70395;51.382;7.074;2023-07-24T12:42:36;2.53;;;1.10;;
80936;SDS011;70395;51.382;7.074;2023-07-24T12:45:02;2.80;;;1.70;;
80936;SDS011;70395;51.382;7.074;2023-07-24T12:47:30;3.00;;;1.10;;
80936;SDS011;70395;51.382;7.074;2023-07-24T12:49:56;2.33;;;1.27;;
80936;SDS011;70395;51.382;7.074;2023-07-24T12:52:24;3.07;;;1.30;;
80936;SDS011;70395;51.382;7.074;2023-07-24T12:54:51;1.60;;;1.10;;
80936;SDS011;70395;51.382;7.074;2023-07-24T12:57:17;3.87;;;1.77;;
80936;SDS011;70395;51.382;7.074;2023-07-24T12:59:43;3.40;;;2.03;;
80936;SDS011;70395;51.382;7.074;2023-07-24T13:02:09;3.23;;;1.40;;
80936;SDS011;70395;51.382;7.074;2023-07-24T13:04:34;3.20;;;1.97;;
80936;SDS011;70395;51.382;7.074;2023-07-24T13:07:00;3.63;;;1.87;;
80936;SDS011;70395;51.382;7.074;2023-07-24T13:09:27;3.30;;;2.20;;
80936;SDS011;70395;51.382;7.074;2023-07-24T13:11:53;1.60;;;1.23;;
80936;SDS011;70395;51.382;7.074;2023-07-24T13:14:19;3.90;;;1.73;;
80936;SDS011;70395;51.382;7.074;2023-07-24T13:16:46;4.83;;;1.97;;
80936;SDS011;70395;51.382;7.074;2023-07-24T13:19:12;2.87;;;2.00;;
80936;SDS011;70395;51.382;7.074;2023-07-24T13:21:38;2.17;;;1.60;;
80936;SDS011;70395;51.382;7.074;2023-07-24T13:24:08;2.10;;;1.90;;
80936;SDS011;70395;51.382;7.074;2023-07-24T13:26:34;3.50;;;1.60;;
80936;SDS011;70395;51.382;7.074;2023-07-24T13:29:00;2.93;;;1.77;;
80936;SDS011;70395;51.382;7.074;2023-07-24T13:31:28;2.37;;;2.00;;
80936;SDS011;70395;51.382;7.074;2023-07-24T13:33:55;2.47;;;2.27;;
80936;SDS011;70395;51.382;7.074;2023-07-24T13:36:21;1.80;;;1.57;;
80936;SDS011;70395;51.382;7.074;2023-07-24T13:38:47;4.50;;;1.60;;
80936;SDS011;70395;51.382;7.074;2023-07-24T13:41:13;3.80;;;1.80;;
80936;SDS011;70395;51.382;7.074;2023-07-24T13:43:38;3.03;;;1.67;;
80936;SDS011;70395;51.382;7.074;2023-07-24T13:46:04;2.13;;;1.60;;
80936;SDS011;70395;51.382;7.074;2023-07-24T13:48:32;2.10;;;1.63;;
80936;SDS011;70395;51.382;7.074;2023-07-24T13:50:58;2.27;;;2.07;;
80936;SDS011;70395;51.382;7.074;2023-07-24T13:53:24;3.53;;;2.00;;
80936;SDS011;70395;51.382;7.074;2023-07-24T13:55:49;2.07;;;1.87;;
80936;SDS011;70395;51.382;7.074;2023-07-24T13:58:16;6.00;;;2.40;;
80936;SDS011;70395;51.382;7.074;2023-07-24T14:00:42;2.83;;;1.93;;
80936;SDS011;70395;51.382;7.074;2023-07-24T14:03:07;4.20;;;2.40;;
80936;SDS011;70395;51.382;7.074;2023-07-24T14:05:33;3.70;;;3.40;;
80936;SDS011;70395;51.382;7.074;2023-07-24T14:08:01;4.10;;;3.77;;
80936;SDS011;70395;51.382;7.074;2023-07-24T14:10:28;3.50;;;3.23;;
80936;SDS011;70395;51.382;7.074;2023-07-24T14:12:54;3.60;;;3.30;;
80936;SDS011;70395;51.382;7.074;2023-07-24T14:15:20;3.77;;;3.47;;
80936;SDS011;70395;51.382;7.074;2023-07-24T14:17:46;4.03;;;3.73;;
80936;SDS011;70395;51.382;7.074;2023-07-24T14:20:12;3.97;;;3.60;;
80936;SDS011;70395;51.382;7.074;2023-07-24T14:22:38;3.80;;;3.40;;
80936;SDS011;70395;51.382;7.074;2023-07-24T14:25:04;3.00;;;2.70;;
80936;SDS011;70395;51.382;7.074;2023-07-24T14:27:33;2.83;;;2.37;;
80936;SDS011;70395;51.382;7.074;2023-07-24T14:29:59;3.60;;;3.17;;
80936;SDS011;70395;51.382;7.074;2023-07-24T14:32:25;2.90;;;2.50;;
80936;SDS011;70395;51.382;7.074;2023-07-24T14:34:51;3.70;;;2.67;;
80936;SDS011;70395;51.382;7.074;2023-07-24T14:37:18;3.10;;;2.60;;
80936;SDS011;70395;51.382;7.074;2023-07-24T14:39:45;2.30;;;2.10;;
80936;SDS011;70395;51.382;7.074;2023-07-24T14:42:11;3.70;;;2.70;;
80936;SDS011;70395;51.382;7.074;2023-07-24T14:44:37;3.10;;;2.80;;
80936;SDS011;70395;51.382;7.074;2023-07-24T14:47:03;3.23;;;2.40;;
80936;SDS011;70395;51.382;7.074;2023-07-24T14:49:29;6.13;;;2.97;;
80936;SDS011;70395;51.382;7.074;2023-07-24T14:51:55;2.50;;;2.30;;
80936;SDS011;70395;51.382;7.074;2023-07-24T14:54:21;2.87;;;2.50;;
80936;SDS011;70395;51.382;7.074;2023-07-24T14:56:47;4.30;;;2.80;;